sensor_id;sensor_type;location;lat;lon;timestamp;temperature;humidity
2439;DHT22;14509;47.992;7.848;2023-11-21T00:00:47;13.60;62.20
2439;DHT22;14509;47.992;7.848;2023-11-21T00:02:51;13.70;62.10
2439;DHT22;14509;47.992;7.848;2023-11-21T00:04:52;13.70;62.00
2439;DHT22;14509;47.992;7.848;2023-11-21T00:06:55;14.10;62.60
2439;DHT22;14509;47.992;7.848;2023-11-21T00:08:57;13.70;62.00
2439;DHT22;14509;47.992;7.848;2023-11-21T00:10:59;13.70;62.10
2439;DHT22;14509;47.992;7.848;2023-11-21T00:13:01;14.00;62.50
2439;DHT22;14509;47.992;7.848;2023-11-21T00:15:04;13.70;63.20
2439;DHT22;14509;47.992;7.848;2023-11-21T00:17:06;13.70;62.60
2439;DHT22;14509;47.992;7.848;2023-11-21T00:19:08;13.90;62.80
2439;DHT22;14509;47.992;7.848;2023-11-21T00:21:09;13.70;62.60
2439;DHT22;14509;47.992;7.848;2023-11-21T00:23:14;13.70;62.70
2439;DHT22;14509;47.992;7.848;2023-11-21T00:25:16;13.70;62.80
2439;DHT22;14509;47.992;7.848;2023-11-21T00:27:18;13.60;62.80
2439;DHT22;14509;47.992;7.848;2023-11-21T00:29:21;13.70;62.90
2439;DHT22;14509;47.992;7.848;2023-11-21T00:31:23;13.70;62.90
2439;DHT22;14509;47.992;7.848;2023-11-21T00:33:25;13.50;62.50
2439;DHT22;14509;47.992;7.848;2023-11-21T00:35:28;13.70;62.70
2439;DHT22;14509;47.992;7.848;2023-11-21T00:37:29;13.70;62.70
2439;DHT22;14509;47.992;7.848;2023-11-21T00:39:34;13.70;62.50
2439;DHT22;14509;47.992;7.848;2023-11-21T00:41:35;13.70;62.60
2439;DHT22;14509;47.992;7.848;2023-11-21T00:43:37;13.70;62.50
2439;DHT22;14509;47.992;7.848;2023-11-21T00:45:38;13.60;62.40
2439;DHT22;14509;47.992;7.848;2023-11-21T00:47:41;13.60;62.70
2439;DHT22;14509;47.992;7.848;2023-11-21T00:49:42;13.60;62.70
2439;DHT22;14509;47.992;7.848;2023-11-21T00:51:45;13.60;62.70
2439;DHT22;14509;47.992;7.848;2023-11-21T00:53:47;13.60;62.60
2439;DHT22;14509;47.992;7.848;2023-11-21T00:55:50;13.60;62.70
2439;DHT22;14509;47.992;7.848;2023-11-21T00:57:52;13.60;62.80
2439;DHT22;14509;47.992;7.848;2023-11-21T00:59:54;13.50;62.60
2439;DHT22;14509;47.992;7.848;2023-11-21T01:01:56;13.40;62.80
2439;DHT22;14509;47.992;7.848;2023-11-21T01:04:01;13.40;63.10
2439;DHT22;14509;47.992;7.848;2023-11-21T01:06:03;13.40;63.00
2439;DHT22;14509;47.992;7.848;2023-11-21T01:08:05;13.40;63.00
2439;DHT22;14509;47.992;7.848;2023-11-21T01:10:08;13.40;63.10
2439;DHT22;14509;47.992;7.848;2023-11-21T01:12:11;13.40;63.20
2439;DHT22;14509;47.992;7.848;2023-11-21T01:14:14;13.40;62.90
2439;DHT22;14509;47.992;7.848;2023-11-21T01:16:18;13.70;63.20
2439;DHT22;14509;47.992;7.848;2023-11-21T01:18:20;13.40;62.80
2439;DHT22;14509;47.992;7.848;2023-11-21T01:20:22;13.40;62.70
2439;DHT22;14509;47.992;7.848;2023-11-21T01:22:24;13.40;62.50
2439;DHT22;14509;47.992;7.848;2023-11-21T01:24:28;13.50;62.60
2439;DHT22;14509;47.992;7.848;2023-11-21T01:26:29;13.50;62.50
2439;DHT22;14509;47.992;7.848;2023-11-21T01:28:33;13.60;62.40
2439;DHT22;14509;47.992;7.848;2023-11-21T01:30:34;13.90;62.40
2439;DHT22;14509;47.992;7.848;2023-11-21T01:32:36;13.40;61.60
2439;DHT22;14509;47.992;7.848;2023-11-21T01:34:38;13.50;61.80
2439;DHT22;14509;47.992;7.848;2023-11-21T01:36:40;13.50;61.90
2439;DHT22;14509;47.992;7.848;2023-11-21T01:38:42;13.40;61.70
2439;DHT22;14509;47.992;7.848;2023-11-21T01:40:44;13.50;61.80
2439;DHT22;14509;47.992;7.848;2023-11-21T01:42:46;13.50;61.70
2439;DHT22;14509;47.992;7.848;2023-11-21T01:44:50;13.50;61.60
2439;DHT22;14509;47.992;7.848;2023-11-21T01:46:52;13.50;61.60
2439;DHT22;14509;47.992;7.848;2023-11-21T01:48:55;13.50;61.60
2439;DHT22;14509;47.992;7.848;2023-11-21T01:50:57;13.60;61.50
2439;DHT22;14509;47.992;7.848;2023-11-21T01:53:00;13.60;61.10
2439;DHT22;14509;47.992;7.848;2023-11-21T01:55:03;13.50;61.10
2439;DHT22;14509;47.992;7.848;2023-11-21T01:57:06;13.50;61.00
2439;DHT22;14509;47.992;7.848;2023-11-21T01:59:08;13.50;60.70
2439;DHT22;14509;47.992;7.848;2023-11-21T02:01:12;13.40;60.70
2439;DHT22;14509;47.992;7.848;2023-11-21T02:03:14;13.50;60.70
2439;DHT22;14509;47.992;7.848;2023-11-21T02:05:18;13.40;60.60
2439;DHT22;14509;47.992;7.848;2023-11-21T02:07:20;13.50;61.60
2439;DHT22;14509;47.992;7.848;2023-11-21T02:09:25;13.60;60.80
2439;DHT22;14509;47.992;7.848;2023-11-21T02:11:28;13.60;60.60
2439;DHT22;14509;47.992;7.848;2023-11-21T02:13:30;13.60;60.40
2439;DHT22;14509;47.992;7.848;2023-11-21T02:15:32;13.60;60.30
2439;DHT22;14509;47.992;7.848;2023-11-21T02:17:35;13.70;60.30
2439;DHT22;14509;47.992;7.848;2023-11-21T02:19:38;13.70;60.10
2439;DHT22;14509;47.992;7.848;2023-11-21T02:21:40;13.90;60.00
2439;DHT22;14509;47.992;7.848;2023-11-21T02:23:42;13.80;59.90
2439;DHT22;14509;47.992;7.848;2023-11-21T02:25:45;14.00;59.50
2439;DHT22;14509;47.992;7.848;2023-11-21T02:27:47;13.80;59.40
2439;DHT22;14509;47.992;7.848;2023-11-21T02:29:49;13.90;59.40
2439;DHT22;14509;47.992;7.848;2023-11-21T02:31:52;13.90;59.30
2439;DHT22;14509;47.992;7.848;2023-11-21T02:33:55;13.90;59.40
2439;DHT22;14509;47.992;7.848;2023-11-21T02:35:57;14.10;59.50
2439;DHT22;14509;47.992;7.848;2023-11-21T02:37:59;14.00;59.30
2439;DHT22;14509;47.992;7.848;2023-11-21T02:40:03;14.00;59.20
2439;DHT22;14509;47.992;7.848;2023-11-21T02:42:06;14.00;59.20
2439;DHT22;14509;47.992;7.848;2023-11-21T02:44:08;14.00;59.20
2439;DHT22;14509;47.992;7.848;2023-11-21T02:46:11;14.00;59.10
2439;DHT22;14509;47.992;7.848;2023-11-21T02:48:14;14.00;59.00
2439;DHT22;14509;47.992;7.848;2023-11-21T02:50:16;14.00;59.50
2439;DHT22;14509;47.992;7.848;2023-11-21T02:52:20;14.10;59.10
2439;DHT22;14509;47.992;7.848;2023-11-21T02:54:22;13.90;58.90
2439;DHT22;14509;47.992;7.848;2023-11-21T02:56:25;13.90;59.00
2439;DHT22;14509;47.992;7.848;2023-11-21T02:58:27;13.90;59.00
2439;DHT22;14509;47.992;7.848;2023-11-21T03:00:29;14.00;59.20
2439;DHT22;14509;47.992;7.848;2023-11-21T03:02:31;13.90;59.30
2439;DHT22;14509;47.992;7.848;2023-11-21T03:04:33;13.90;59.30
2439;DHT22;14509;47.992;7.848;2023-11-21T03:06:35;13.90;59.30
2439;DHT22;14509;47.992;7.848;2023-11-21T03:08:37;13.90;59.20
2439;DHT22;14509;47.992;7.848;2023-11-21T03:10:39;13.90;59.20
2439;DHT22;14509;47.992;7.848;2023-11-21T03:12:42;13.80;59.30
2439;DHT22;14509;47.992;7.848;2023-11-21T03:14:45;13.80;59.20
2439;DHT22;14509;47.992;7.848;2023-11-21T03:16:48;13.80;59.30
2439;DHT22;14509;47.992;7.848;2023-11-21T03:18:50;13.80;59.40
2439;DHT22;14509;47.992;7.848;2023-11-21T03:20:53;13.80;59.40
2439;DHT22;14509;47.992;7.848;2023-11-21T03:22:55;13.70;59.40
2439;DHT22;14509;47.992;7.848;2023-11-21T03:24:57;13.80;59.50
2439;DHT22;14509;47.992;7.848;2023-11-21T03:26:59;13.80;59.60
2439;DHT22;14509;47.992;7.848;2023-11-21T03:29:02;13.80;59.60
2439;DHT22;14509;47.992;7.848;2023-11-21T03:31:05;13.90;59.50
2439;DHT22;14509;47.992;7.848;2023-11-21T03:33:09;13.90;59.50
2439;DHT22;14509;47.992;7.848;2023-11-21T03:35:11;13.90;59.40
2439;DHT22;14509;47.992;7.848;2023-11-21T03:37:13;13.90;59.30
2439;DHT22;14509;47.992;7.848;2023-11-21T03:39:15;13.90;59.20
2439;DHT22;14509;47.992;7.848;2023-11-21T03:41:18;14.00;59.20
2439;DHT22;14509;47.992;7.848;2023-11-21T03:43:20;14.00;59.80
2439;DHT22;14509;47.992;7.848;2023-11-21T03:45:23;13.90;58.90
2439;DHT22;14509;47.992;7.848;2023-11-21T03:47:26;14.20;59.10
2439;DHT22;14509;47.992;7.848;2023-11-21T03:49:28;14.00;59.00
2439;DHT22;14509;47.992;7.848;2023-11-21T03:51:31;14.00;59.00
2439;DHT22;14509;47.992;7.848;2023-11-21T03:53:31;14.00;58.90
2439;DHT22;14509;47.992;7.848;2023-11-21T03:55:34;14.10;59.00
2439;DHT22;14509;47.992;7.848;2023-11-21T03:57:36;14.00;59.00
2439;DHT22;14509;47.992;7.848;2023-11-21T03:59:40;14.10;59.10
2439;DHT22;14509;47.992;7.848;2023-11-21T04:01:42;14.10;59.10
2439;DHT22;14509;47.992;7.848;2023-11-21T04:03:44;14.10;59.00
2439;DHT22;14509;47.992;7.848;2023-11-21T04:05:46;14.10;59.10
2439;DHT22;14509;47.992;7.848;2023-11-21T04:07:49;14.10;59.00
2439;DHT22;14509;47.992;7.848;2023-11-21T04:09:51;14.10;59.10
2439;DHT22;14509;47.992;7.848;2023-11-21T04:11:54;14.30;59.20
2439;DHT22;14509;47.992;7.848;2023-11-21T04:13:56;14.10;59.10
2439;DHT22;14509;47.992;7.848;2023-11-21T04:15:58;14.10;59.10
2439;DHT22;14509;47.992;7.848;2023-11-21T04:18:01;14.30;59.20
2439;DHT22;14509;47.992;7.848;2023-11-21T04:20:04;14.10;59.20
2439;DHT22;14509;47.992;7.848;2023-11-21T04:22:09;13.90;59.30
2439;DHT22;14509;47.992;7.848;2023-11-21T04:24:15;13.90;59.50
2439;DHT22;14509;47.992;7.848;2023-11-21T04:26:17;13.80;59.80
2439;DHT22;14509;47.992;7.848;2023-11-21T04:28:19;13.70;59.90
2439;DHT22;14509;47.992;7.848;2023-11-21T04:30:21;13.70;60.00
2439;DHT22;14509;47.992;7.848;2023-11-21T04:32:23;13.80;60.20
2439;DHT22;14509;47.992;7.848;2023-11-21T04:34:25;13.80;60.20
2439;DHT22;14509;47.992;7.848;2023-11-21T04:36:27;13.80;60.10
2439;DHT22;14509;47.992;7.848;2023-11-21T04:38:31;13.90;60.30
2439;DHT22;14509;47.992;7.848;2023-11-21T04:40:33;13.80;60.10
2439;DHT22;14509;47.992;7.848;2023-11-21T04:42:35;13.90;60.10
2439;DHT22;14509;47.992;7.848;2023-11-21T04:44:37;13.90;60.10
2439;DHT22;14509;47.992;7.848;2023-11-21T04:46:41;13.90;60.10
2439;DHT22;14509;47.992;7.848;2023-11-21T04:48:43;13.90;60.10
2439;DHT22;14509;47.992;7.848;2023-11-21T04:50:46;13.90;60.00
2439;DHT22;14509;47.992;7.848;2023-11-21T04:52:48;14.00;60.10
2439;DHT22;14509;47.992;7.848;2023-11-21T04:54:50;14.00;60.00
2439;DHT22;14509;47.992;7.848;2023-11-21T04:56:54;14.00;59.90
2439;DHT22;14509;47.992;7.848;2023-11-21T04:58:56;14.00;59.90
2439;DHT22;14509;47.992;7.848;2023-11-21T05:00:58;14.00;60.00
2439;DHT22;14509;47.992;7.848;2023-11-21T05:03:01;14.10;61.00
2439;DHT22;14509;47.992;7.848;2023-11-21T05:05:05;14.00;59.80
2439;DHT22;14509;47.992;7.848;2023-11-21T05:07:09;14.10;59.90
2439;DHT22;14509;47.992;7.848;2023-11-21T05:09:12;14.10;59.90
2439;DHT22;14509;47.992;7.848;2023-11-21T05:11:24;14.10;60.00
2439;DHT22;14509;47.992;7.848;2023-11-21T05:13:26;14.00;60.00
2439;DHT22;14509;47.992;7.848;2023-11-21T05:15:28;14.00;60.10
2439;DHT22;14509;47.992;7.848;2023-11-21T05:17:30;14.00;60.20
2439;DHT22;14509;47.992;7.848;2023-11-21T05:19:33;14.00;60.00
2439;DHT22;14509;47.992;7.848;2023-11-21T05:21:36;13.90;60.30
2439;DHT22;14509;47.992;7.848;2023-11-21T05:23:39;13.90;60.40
2439;DHT22;14509;47.992;7.848;2023-11-21T05:25:41;13.90;60.30
2439;DHT22;14509;47.992;7.848;2023-11-21T05:27:43;14.00;60.40
2439;DHT22;14509;47.992;7.848;2023-11-21T05:29:45;13.90;61.20
2439;DHT22;14509;47.992;7.848;2023-11-21T05:31:47;13.90;60.50
2439;DHT22;14509;47.992;7.848;2023-11-21T05:33:48;13.80;60.70
2439;DHT22;14509;47.992;7.848;2023-11-21T05:35:50;14.00;61.10
2439;DHT22;14509;47.992;7.848;2023-11-21T05:37:52;13.70;61.10
2439;DHT22;14509;47.992;7.848;2023-11-21T05:39:56;13.70;61.50
2439;DHT22;14509;47.992;7.848;2023-11-21T05:41:57;13.60;62.80
2439;DHT22;14509;47.992;7.848;2023-11-21T05:44:00;13.60;62.30
2439;DHT22;14509;47.992;7.848;2023-11-21T05:46:02;13.40;62.40
2439;DHT22;14509;47.992;7.848;2023-11-21T05:48:03;13.40;62.80
2439;DHT22;14509;47.992;7.848;2023-11-21T05:50:07;13.30;63.30
2439;DHT22;14509;47.992;7.848;2023-11-21T05:52:12;13.20;63.80
2439;DHT22;14509;47.992;7.848;2023-11-21T05:54:13;13.20;63.80
2439;DHT22;14509;47.992;7.848;2023-11-21T05:56:17;13.20;63.90
2439;DHT22;14509;47.992;7.848;2023-11-21T05:58:19;13.20;64.10
2439;DHT22;14509;47.992;7.848;2023-11-21T06:00:20;13.20;64.10
2439;DHT22;14509;47.992;7.848;2023-11-21T06:02:22;13.20;64.10
2439;DHT22;14509;47.992;7.848;2023-11-21T06:04:23;13.20;64.10
2439;DHT22;14509;47.992;7.848;2023-11-21T06:06:25;13.30;64.30
2439;DHT22;14509;47.992;7.848;2023-11-21T06:08:27;13.30;64.30
2439;DHT22;14509;47.992;7.848;2023-11-21T06:10:29;13.50;64.50
2439;DHT22;14509;47.992;7.848;2023-11-21T06:12:32;13.30;64.20
2439;DHT22;14509;47.992;7.848;2023-11-21T06:14:36;13.30;64.20
2439;DHT22;14509;47.992;7.848;2023-11-21T06:16:38;13.30;64.30
2439;DHT22;14509;47.992;7.848;2023-11-21T06:18:40;13.30;64.20
2439;DHT22;14509;47.992;7.848;2023-11-21T06:20:42;13.40;64.20
2439;DHT22;14509;47.992;7.848;2023-11-21T06:22:46;13.30;64.90
2439;DHT22;14509;47.992;7.848;2023-11-21T06:24:48;13.40;64.30
2439;DHT22;14509;47.992;7.848;2023-11-21T06:26:50;13.40;64.20
2439;DHT22;14509;47.992;7.848;2023-11-21T06:28:53;13.40;65.00
2439;DHT22;14509;47.992;7.848;2023-11-21T06:30:55;13.40;64.20
2439;DHT22;14509;47.992;7.848;2023-11-21T06:32:58;13.40;64.20
2439;DHT22;14509;47.992;7.848;2023-11-21T06:35:00;13.40;64.10
2439;DHT22;14509;47.992;7.848;2023-11-21T06:37:01;13.50;64.10
2439;DHT22;14509;47.992;7.848;2023-11-21T06:39:03;13.40;64.00
2439;DHT22;14509;47.992;7.848;2023-11-21T06:41:07;13.50;64.00
2439;DHT22;14509;47.992;7.848;2023-11-21T06:43:09;13.50;64.00
2439;DHT22;14509;47.992;7.848;2023-11-21T06:45:12;13.50;63.90
2439;DHT22;14509;47.992;7.848;2023-11-21T06:47:15;13.50;63.80
2439;DHT22;14509;47.992;7.848;2023-11-21T06:49:17;13.40;63.60
2439;DHT22;14509;47.992;7.848;2023-11-21T06:51:19;13.40;63.50
2439;DHT22;14509;47.992;7.848;2023-11-21T06:53:21;13.40;63.50
2439;DHT22;14509;47.992;7.848;2023-11-21T06:55:22;13.40;63.60
2439;DHT22;14509;47.992;7.848;2023-11-21T06:57:24;13.40;63.70
2439;DHT22;14509;47.992;7.848;2023-11-21T06:59:25;13.30;63.70
2439;DHT22;14509;47.992;7.848;2023-11-21T07:01:28;13.30;63.70
2439;DHT22;14509;47.992;7.848;2023-11-21T07:03:30;13.40;63.90
2439;DHT22;14509;47.992;7.848;2023-11-21T07:05:31;13.40;63.80
2439;DHT22;14509;47.992;7.848;2023-11-21T07:07:33;13.40;63.70
2439;DHT22;14509;47.992;7.848;2023-11-21T07:09:36;13.40;63.70
2439;DHT22;14509;47.992;7.848;2023-11-21T07:11:38;13.40;63.70
2439;DHT22;14509;47.992;7.848;2023-11-21T07:13:40;13.50;63.70
2439;DHT22;14509;47.992;7.848;2023-11-21T07:15:42;13.40;63.50
2439;DHT22;14509;47.992;7.848;2023-11-21T07:17:45;13.40;63.30
2439;DHT22;14509;47.992;7.848;2023-11-21T07:19:49;13.50;63.50
2439;DHT22;14509;47.992;7.848;2023-11-21T07:21:51;13.50;63.50
2439;DHT22;14509;47.992;7.848;2023-11-21T07:23:53;13.50;63.50
2439;DHT22;14509;47.992;7.848;2023-11-21T07:25:55;13.50;63.30
2439;DHT22;14509;47.992;7.848;2023-11-21T07:27:58;13.60;63.40
2439;DHT22;14509;47.992;7.848;2023-11-21T07:30:00;13.60;63.30
2439;DHT22;14509;47.992;7.848;2023-11-21T07:32:04;13.60;63.30
2439;DHT22;14509;47.992;7.848;2023-11-21T07:34:07;13.70;63.20
2439;DHT22;14509;47.992;7.848;2023-11-21T07:36:09;13.70;63.10
2439;DHT22;14509;47.992;7.848;2023-11-21T07:38:12;13.80;63.10
2439;DHT22;14509;47.992;7.848;2023-11-21T07:40:14;13.80;63.00
2439;DHT22;14509;47.992;7.848;2023-11-21T07:42:17;13.80;62.80
2439;DHT22;14509;47.992;7.848;2023-11-21T07:44:20;13.90;62.80
2439;DHT22;14509;47.992;7.848;2023-11-21T07:46:25;13.90;62.80
2439;DHT22;14509;47.992;7.848;2023-11-21T07:48:27;13.90;62.70
2439;DHT22;14509;47.992;7.848;2023-11-21T07:50:31;14.00;62.50
2439;DHT22;14509;47.992;7.848;2023-11-21T07:52:33;14.00;62.30
2439;DHT22;14509;47.992;7.848;2023-11-21T07:54:35;14.20;62.50
2439;DHT22;14509;47.992;7.848;2023-11-21T07:56:37;14.10;62.20
2439;DHT22;14509;47.992;7.848;2023-11-21T07:58:39;14.20;62.20
2439;DHT22;14509;47.992;7.848;2023-11-21T08:00:41;14.30;63.00
2439;DHT22;14509;47.992;7.848;2023-11-21T08:02:43;14.30;61.70
2439;DHT22;14509;47.992;7.848;2023-11-21T08:04:46;14.40;61.70
2439;DHT22;14509;47.992;7.848;2023-11-21T08:06:51;14.40;61.60
2439;DHT22;14509;47.992;7.848;2023-11-21T08:08:53;14.50;61.50
2439;DHT22;14509;47.992;7.848;2023-11-21T08:10:55;14.50;61.40
2439;DHT22;14509;47.992;7.848;2023-11-21T08:12:57;14.80;61.60
2439;DHT22;14509;47.992;7.848;2023-11-21T08:14:59;14.70;61.50
2439;DHT22;14509;47.992;7.848;2023-11-21T08:17:01;14.70;61.20
2439;DHT22;14509;47.992;7.848;2023-11-21T08:19:03;14.80;62.00
2439;DHT22;14509;47.992;7.848;2023-11-21T08:21:05;14.90;61.00
2439;DHT22;14509;47.992;7.848;2023-11-21T08:23:08;14.90;60.90
2439;DHT22;14509;47.992;7.848;2023-11-21T08:25:10;14.90;60.20
2439;DHT22;14509;47.992;7.848;2023-11-21T08:27:13;15.00;60.20
2439;DHT22;14509;47.992;7.848;2023-11-21T08:29:16;15.10;60.10
2439;DHT22;14509;47.992;7.848;2023-11-21T08:31:24;15.10;59.90
2439;DHT22;14509;47.992;7.848;2023-11-21T08:33:27;15.20;59.90
2439;DHT22;14509;47.992;7.848;2023-11-21T08:35:29;15.20;59.80
2439;DHT22;14509;47.992;7.848;2023-11-21T08:37:30;15.30;59.60
2439;DHT22;14509;47.992;7.848;2023-11-21T08:39:38;15.30;59.60
2439;DHT22;14509;47.992;7.848;2023-11-21T08:41:42;15.40;59.60
2439;DHT22;14509;47.992;7.848;2023-11-21T08:43:43;15.40;59.50
2439;DHT22;14509;47.992;7.848;2023-11-21T08:45:45;15.40;59.60
2439;DHT22;14509;47.992;7.848;2023-11-21T08:47:47;15.30;59.50
2439;DHT22;14509;47.992;7.848;2023-11-21T08:49:50;15.40;59.60
2439;DHT22;14509;47.992;7.848;2023-11-21T08:51:53;15.50;59.50
2439;DHT22;14509;47.992;7.848;2023-11-21T08:53:56;15.60;59.40
2439;DHT22;14509;47.992;7.848;2023-11-21T08:56:01;15.80;59.40
2439;DHT22;14509;47.992;7.848;2023-11-21T08:58:04;15.80;59.30
2439;DHT22;14509;47.992;7.848;2023-11-21T09:00:08;15.80;59.00
2439;DHT22;14509;47.992;7.848;2023-11-21T09:02:12;15.90;58.60
2439;DHT22;14509;47.992;7.848;2023-11-21T09:04:14;15.90;58.10
2439;DHT22;14509;47.992;7.848;2023-11-21T09:06:15;16.00;57.90
2439;DHT22;14509;47.992;7.848;2023-11-21T09:08:17;16.10;57.90
2439;DHT22;14509;47.992;7.848;2023-11-21T09:10:19;16.10;57.80
2439;DHT22;14509;47.992;7.848;2023-11-21T09:12:22;16.20;57.50
2439;DHT22;14509;47.992;7.848;2023-11-21T09:14:25;16.30;57.60
2439;DHT22;14509;47.992;7.848;2023-11-21T09:16:27;16.40;57.40
2439;DHT22;14509;47.992;7.848;2023-11-21T09:18:29;16.50;57.40
2439;DHT22;14509;47.992;7.848;2023-11-21T09:20:31;16.40;56.90
2439;DHT22;14509;47.992;7.848;2023-11-21T09:22:33;16.50;56.60
2439;DHT22;14509;47.992;7.848;2023-11-21T09:24:35;16.50;56.40
2439;DHT22;14509;47.992;7.848;2023-11-21T09:26:38;16.60;56.30
2439;DHT22;14509;47.992;7.848;2023-11-21T09:28:41;16.60;55.90
2439;DHT22;14509;47.992;7.848;2023-11-21T09:30:47;16.50;55.80
2439;DHT22;14509;47.992;7.848;2023-11-21T09:32:51;16.50;55.60
2439;DHT22;14509;47.992;7.848;2023-11-21T09:34:53;16.50;55.50
2439;DHT22;14509;47.992;7.848;2023-11-21T09:36:56;16.50;55.40
2439;DHT22;14509;47.992;7.848;2023-11-21T09:38:58;16.50;55.50
2439;DHT22;14509;47.992;7.848;2023-11-21T09:41:04;16.40;55.60
2439;DHT22;14509;47.992;7.848;2023-11-21T09:43:12;16.40;55.70
2439;DHT22;14509;47.992;7.848;2023-11-21T09:45:25;16.40;55.80
2439;DHT22;14509;47.992;7.848;2023-11-21T09:47:27;16.30;55.80
2439;DHT22;14509;47.992;7.848;2023-11-21T09:49:30;16.30;55.80
2439;DHT22;14509;47.992;7.848;2023-11-21T09:51:35;16.30;55.80
2439;DHT22;14509;47.992;7.848;2023-11-21T09:53:42;16.20;55.70
2439;DHT22;14509;47.992;7.848;2023-11-21T09:55:47;16.30;55.80
2439;DHT22;14509;47.992;7.848;2023-11-21T09:57:48;16.20;55.50
2439;DHT22;14509;47.992;7.848;2023-11-21T09:59:52;16.30;55.50
2439;DHT22;14509;47.992;7.848;2023-11-21T10:01:57;16.20;55.40
2439;DHT22;14509;47.992;7.848;2023-11-21T10:04:00;16.20;55.30
2439;DHT22;14509;47.992;7.848;2023-11-21T10:06:03;16.10;55.30
2439;DHT22;14509;47.992;7.848;2023-11-21T10:08:08;16.10;55.20
2439;DHT22;14509;47.992;7.848;2023-11-21T10:10:11;15.90;55.10
2439;DHT22;14509;47.992;7.848;2023-11-21T10:12:15;15.90;55.30
2439;DHT22;14509;47.992;7.848;2023-11-21T10:14:19;15.80;55.60
2439;DHT22;14509;47.992;7.848;2023-11-21T10:16:25;15.60;55.70
2439;DHT22;14509;47.992;7.848;2023-11-21T10:18:29;15.60;56.10
2439;DHT22;14509;47.992;7.848;2023-11-21T10:20:32;15.50;57.00
2439;DHT22;14509;47.992;7.848;2023-11-21T10:22:35;15.60;57.00
2439;DHT22;14509;47.992;7.848;2023-11-21T10:24:37;15.60;57.00
2439;DHT22;14509;47.992;7.848;2023-11-21T10:26:39;15.60;56.90
2439;DHT22;14509;47.992;7.848;2023-11-21T10:28:55;15.70;57.00
2439;DHT22;14509;47.992;7.848;2023-11-21T10:30:56;15.80;57.00
2439;DHT22;14509;47.992;7.848;2023-11-21T10:32:59;15.80;56.70
2439;DHT22;14509;47.992;7.848;2023-11-21T10:35:02;15.80;56.60
2439;DHT22;14509;47.992;7.848;2023-11-21T10:37:12;15.80;56.30
2439;DHT22;14509;47.992;7.848;2023-11-21T10:39:14;15.80;56.40
2439;DHT22;14509;47.992;7.848;2023-11-21T10:41:18;16.10;56.60
2439;DHT22;14509;47.992;7.848;2023-11-21T10:43:24;15.80;56.20
2439;DHT22;14509;47.992;7.848;2023-11-21T10:45:27;15.80;56.30
2439;DHT22;14509;47.992;7.848;2023-11-21T10:47:31;15.80;56.50
2439;DHT22;14509;47.992;7.848;2023-11-21T10:49:33;16.20;57.10
2439;DHT22;14509;47.992;7.848;2023-11-21T10:51:37;15.80;56.90
2439;DHT22;14509;47.992;7.848;2023-11-21T10:53:44;15.90;57.10
2439;DHT22;14509;47.992;7.848;2023-11-21T10:55:47;16.00;57.10
2439;DHT22;14509;47.992;7.848;2023-11-21T10:57:52;16.10;57.10
2439;DHT22;14509;47.992;7.848;2023-11-21T10:59:54;16.10;57.00
2439;DHT22;14509;47.992;7.848;2023-11-21T11:01:58;16.10;56.80
2439;DHT22;14509;47.992;7.848;2023-11-21T11:04:02;16.20;56.70
2439;DHT22;14509;47.992;7.848;2023-11-21T11:06:07;16.00;56.60
2439;DHT22;14509;47.992;7.848;2023-11-21T11:08:15;16.00;56.70
2439;DHT22;14509;47.992;7.848;2023-11-21T11:10:19;15.90;56.80
2439;DHT22;14509;47.992;7.848;2023-11-21T11:12:24;15.90;57.00
2439;DHT22;14509;47.992;7.848;2023-11-21T11:14:26;15.90;57.10
2439;DHT22;14509;47.992;7.848;2023-11-21T11:16:29;15.90;57.20
2439;DHT22;14509;47.992;7.848;2023-11-21T11:18:31;15.90;57.30
2439;DHT22;14509;47.992;7.848;2023-11-21T11:20:36;15.90;57.30
2439;DHT22;14509;47.992;7.848;2023-11-21T11:22:44;15.90;57.20
2439;DHT22;14509;47.992;7.848;2023-11-21T11:25:13;15.80;57.10
2439;DHT22;14509;47.992;7.848;2023-11-21T11:27:23;15.70;57.10
2439;DHT22;14509;47.992;7.848;2023-11-21T11:29:33;15.50;57.50
2439;DHT22;14509;47.992;7.848;2023-11-21T11:31:42;15.50;58.00
2439;DHT22;14509;47.992;7.848;2023-11-21T11:33:50;15.20;58.30
2439;DHT22;14509;47.992;7.848;2023-11-21T11:36:02;15.30;58.80
2439;DHT22;14509;47.992;7.848;2023-11-21T11:38:06;15.00;59.20
2439;DHT22;14509;47.992;7.848;2023-11-21T11:40:11;15.00;59.40
2439;DHT22;14509;47.992;7.848;2023-11-21T11:42:15;14.90;59.70
2439;DHT22;14509;47.992;7.848;2023-11-21T11:44:48;14.80;59.90
2439;DHT22;14509;47.992;7.848;2023-11-21T11:46:53;14.70;59.90
2439;DHT22;14509;47.992;7.848;2023-11-21T11:49:02;14.70;60.00
2439;DHT22;14509;47.992;7.848;2023-11-21T11:51:05;14.60;60.60
2439;DHT22;14509;47.992;7.848;2023-11-21T11:53:13;14.60;60.40
2439;DHT22;14509;47.992;7.848;2023-11-21T11:55:18;14.60;60.90
2439;DHT22;14509;47.992;7.848;2023-11-21T11:57:24;14.50;61.00
2439;DHT22;14509;47.992;7.848;2023-11-21T11:59:25;14.50;61.30
2439;DHT22;14509;47.992;7.848;2023-11-21T12:01:27;14.40;61.60
2439;DHT22;14509;47.992;7.848;2023-11-21T12:03:30;14.40;61.80
2439;DHT22;14509;47.992;7.848;2023-11-21T12:05:35;14.40;62.10
2439;DHT22;14509;47.992;7.848;2023-11-21T12:07:48;14.40;62.60
2439;DHT22;14509;47.992;7.848;2023-11-21T12:09:50;14.30;62.70
2439;DHT22;14509;47.992;7.848;2023-11-21T12:11:53;14.30;62.60
2439;DHT22;14509;47.992;7.848;2023-11-21T12:13:57;14.20;62.70
2439;DHT22;14509;47.992;7.848;2023-11-21T12:15:59;14.30;63.10
2439;DHT22;14509;47.992;7.848;2023-11-21T12:18:02;14.30;63.30
2439;DHT22;14509;47.992;7.848;2023-11-21T12:20:05;14.20;63.30
2439;DHT22;14509;47.992;7.848;2023-11-21T12:22:06;14.20;63.40
2439;DHT22;14509;47.992;7.848;2023-11-21T12:24:09;14.30;63.40
2439;DHT22;14509;47.992;7.848;2023-11-21T12:26:14;14.30;63.40
2439;DHT22;14509;47.992;7.848;2023-11-21T12:28:17;14.20;63.30
2439;DHT22;14509;47.992;7.848;2023-11-21T12:30:20;14.30;63.70
2439;DHT22;14509;47.992;7.848;2023-11-21T12:32:22;14.30;63.90
2439;DHT22;14509;47.992;7.848;2023-11-21T12:34:26;14.30;63.70
2439;DHT22;14509;47.992;7.848;2023-11-21T12:36:28;14.30;63.40
2439;DHT22;14509;47.992;7.848;2023-11-21T12:38:34;14.40;63.60
2439;DHT22;14509;47.992;7.848;2023-11-21T12:40:36;14.40;63.70
2439;DHT22;14509;47.992;7.848;2023-11-21T12:42:39;14.30;63.30
2439;DHT22;14509;47.992;7.848;2023-11-21T12:44:46;14.30;63.60
2439;DHT22;14509;47.992;7.848;2023-11-21T12:46:48;14.30;63.50
2439;DHT22;14509;47.992;7.848;2023-11-21T12:48:51;14.40;63.60
2439;DHT22;14509;47.992;7.848;2023-11-21T12:50:53;14.30;63.50
2439;DHT22;14509;47.992;7.848;2023-11-21T12:52:59;14.20;63.40
2439;DHT22;14509;47.992;7.848;2023-11-21T12:55:03;14.10;63.60
2439;DHT22;14509;47.992;7.848;2023-11-21T12:57:04;14.10;63.90
2439;DHT22;14509;47.992;7.848;2023-11-21T12:59:08;14.10;64.20
2439;DHT22;14509;47.992;7.848;2023-11-21T13:01:15;14.40;64.60
2439;DHT22;14509;47.992;7.848;2023-11-21T13:03:19;14.10;64.20
2439;DHT22;14509;47.992;7.848;2023-11-21T13:05:30;14.10;64.20
2439;DHT22;14509;47.992;7.848;2023-11-21T13:07:41;14.10;64.40
2439;DHT22;14509;47.992;7.848;2023-11-21T13:09:47;14.10;64.60